sensor_id;sensor_type;location;lat;lon;timestamp;temperature;humidity
5850;DHT22;2951;47.712;9.400;2023-07-13T00:00:10;18.70;99.90
5850;DHT22;2951;47.712;9.400;2023-07-13T00:02:37;18.70;99.90
5850;DHT22;2951;47.712;9.400;2023-07-13T00:05:04;18.70;99.90
5850;DHT22;2951;47.712;9.400;2023-07-13T00:07:31;18.70;99.90
5850;DHT22;2951;47.712;9.400;2023-07-13T00:09:58;18.60;99.90
5850;DHT22;2951;47.712;9.400;2023-07-13T00:12:29;18.60;99.90
5850;DHT22;2951;47.712;9.400;2023-07-13T00:14:57;18.60;99.90
5850;DHT22;2951;47.712;9.400;2023-07-13T00:17:24;18.50;99.90
5850;DHT22;2951;47.712;9.400;2023-07-13T00:19:51;18.50;99.90
5850;DHT22;2951;47.712;9.400;2023-07-13T00:22:18;18.40;99.90
5850;DHT22;2951;47.712;9.400;2023-07-13T00:24:45;18.40;99.90
5850;DHT22;2951;47.712;9.400;2023-07-13T00:27:12;18.30;99.90
5850;DHT22;2951;47.712;9.400;2023-07-13T00:29:39;18.40;99.90
5850;DHT22;2951;47.712;9.400;2023-07-13T00:32:06;18.40;99.90
5850;DHT22;2951;47.712;9.400;2023-07-13T00:34:32;18.40;99.90
5850;DHT22;2951;47.712;9.400;2023-07-13T00:36:59;18.40;99.90
5850;DHT22;2951;47.712;9.400;2023-07-13T00:39:27;18.40;99.90
5850;DHT22;2951;47.712;9.400;2023-07-13T00:41:53;18.30;99.90
5850;DHT22;2951;47.712;9.400;2023-07-13T00:44:20;18.20;99.90
5850;DHT22;2951;47.712;9.400;2023-07-13T00:46:49;18.10;99.90
5850;DHT22;2951;47.712;9.400;2023-07-13T00:49:17;18.20;99.90
5850;DHT22;2951;47.712;9.400;2023-07-13T00:51:58;18.20;99.90
5850;DHT22;2951;47.712;9.400;2023-07-13T00:54:36;18.30;99.90
5850;DHT22;2951;47.712;9.400;2023-07-13T00:57:04;18.30;99.90
5850;DHT22;2951;47.712;9.400;2023-07-13T00:59:32;18.40;99.90
5850;DHT22;2951;47.712;9.400;2023-07-13T01:02:01;18.40;99.90
5850;DHT22;2951;47.712;9.400;2023-07-13T01:04:29;18.40;99.90
5850;DHT22;2951;47.712;9.400;2023-07-13T01:06:55;18.40;99.90
5850;DHT22;2951;47.712;9.400;2023-07-13T01:09:23;18.50;99.90
5850;DHT22;2951;47.712;9.400;2023-07-13T01:11:50;18.50;99.90
5850;DHT22;2951;47.712;9.400;2023-07-13T01:14:16;18.60;99.90
5850;DHT22;2951;47.712;9.400;2023-07-13T01:16:44;18.50;99.90
5850;DHT22;2951;47.712;9.400;2023-07-13T01:21:43;18.50;99.90
5850;DHT22;2951;47.712;9.400;2023-07-13T01:24:10;18.40;99.90
5850;DHT22;2951;47.712;9.400;2023-07-13T01:26:36;18.40;99.90
5850;DHT22;2951;47.712;9.400;2023-07-13T01:29:03;18.40;99.90
5850;DHT22;2951;47.712;9.400;2023-07-13T01:31:30;18.40;99.90
5850;DHT22;2951;47.712;9.400;2023-07-13T01:33:57;18.40;99.90
5850;DHT22;2951;47.712;9.400;2023-07-13T01:36:24;18.30;99.90
5850;DHT22;2951;47.712;9.400;2023-07-13T01:38:51;18.40;99.90
5850;DHT22;2951;47.712;9.400;2023-07-13T01:41:17;18.30;99.90
5850;DHT22;2951;47.712;9.400;2023-07-13T01:43:44;18.30;99.90
5850;DHT22;2951;47.712;9.400;2023-07-13T01:46:11;18.20;99.90
5850;DHT22;2951;47.712;9.400;2023-07-13T01:48:48;18.20;99.90
5850;DHT22;2951;47.712;9.400;2023-07-13T01:51:15;18.20;99.90
5850;DHT22;2951;47.712;9.400;2023-07-13T01:53:42;18.20;99.90
5850;DHT22;2951;47.712;9.400;2023-07-13T01:56:09;18.20;99.90
5850;DHT22;2951;47.712;9.400;2023-07-13T01:58:36;18.10;99.90
5850;DHT22;2951;47.712;9.400;2023-07-13T02:01:02;18.20;99.90
5850;DHT22;2951;47.712;9.400;2023-07-13T02:03:29;18.20;99.90
5850;DHT22;2951;47.712;9.400;2023-07-13T02:05:56;18.20;99.90
5850;DHT22;2951;47.712;9.400;2023-07-13T02:08:23;18.00;99.90
5850;DHT22;2951;47.712;9.400;2023-07-13T02:10:50;18.00;99.90
5850;DHT22;2951;47.712;9.400;2023-07-13T02:13:16;18.00;99.90
5850;DHT22;2951;47.712;9.400;2023-07-13T02:15:43;17.90;99.90
5850;DHT22;2951;47.712;9.400;2023-07-13T02:18:10;17.80;99.90
5850;DHT22;2951;47.712;9.400;2023-07-13T02:20:37;17.80;99.90
5850;DHT22;2951;47.712;9.400;2023-07-13T02:23:03;17.90;99.90
5850;DHT22;2951;47.712;9.400;2023-07-13T02:25:33;17.80;99.90
5850;DHT22;2951;47.712;9.400;2023-07-13T02:27:59;17.90;99.90
5850;DHT22;2951;47.712;9.400;2023-07-13T02:30:26;17.90;99.90
5850;DHT22;2951;47.712;9.400;2023-07-13T02:32:53;17.90;99.90
5850;DHT22;2951;47.712;9.400;2023-07-13T02:35:20;17.90;99.90
5850;DHT22;2951;47.712;9.400;2023-07-13T02:37:47;18.00;99.90
5850;DHT22;2951;47.712;9.400;2023-07-13T02:40:13;17.90;99.90
5850;DHT22;2951;47.712;9.400;2023-07-13T02:42:40;18.00;99.90
5850;DHT22;2951;47.712;9.400;2023-07-13T02:45:07;18.00;99.90
5850;DHT22;2951;47.712;9.400;2023-07-13T02:47:34;18.00;99.90
5850;DHT22;2951;47.712;9.400;2023-07-13T02:50:01;18.00;99.90
5850;DHT22;2951;47.712;9.400;2023-07-13T02:52:28;18.00;99.90
5850;DHT22;2951;47.712;9.400;2023-07-13T02:54:55;18.00;99.90
5850;DHT22;2951;47.712;9.400;2023-07-13T02:57:22;18.10;99.90
5850;DHT22;2951;47.712;9.400;2023-07-13T02:59:48;18.10;99.90
5850;DHT22;2951;47.712;9.400;2023-07-13T03:02:16;18.10;99.90
5850;DHT22;2951;47.712;9.400;2023-07-13T03:04:43;18.10;99.90
5850;DHT22;2951;47.712;9.400;2023-07-13T03:07:10;18.10;99.90
5850;DHT22;2951;47.712;9.400;2023-07-13T03:09:37;18.10;99.90
5850;DHT22;2951;47.712;9.400;2023-07-13T03:12:04;18.00;99.90
5850;DHT22;2951;47.712;9.400;2023-07-13T03:14:30;18.10;99.90
5850;DHT22;2951;47.712;9.400;2023-07-13T03:16:57;18.10;99.90
5850;DHT22;2951;47.712;9.400;2023-07-13T03:19:24;18.10;99.90
5850;DHT22;2951;47.712;9.400;2023-07-13T03:21:51;18.10;99.90
5850;DHT22;2951;47.712;9.400;2023-07-13T03:24:18;18.10;99.90
5850;DHT22;2951;47.712;9.400;2023-07-13T03:26:45;18.30;99.90
5850;DHT22;2951;47.712;9.400;2023-07-13T03:29:11;18.30;99.90
5850;DHT22;2951;47.712;9.400;2023-07-13T03:31:39;18.40;99.90
5850;DHT22;2951;47.712;9.400;2023-07-13T03:34:06;18.40;99.90
5850;DHT22;2951;47.712;9.400;2023-07-13T03:36:33;18.30;99.90
5850;DHT22;2951;47.712;9.400;2023-07-13T03:39:00;18.30;99.90
5850;DHT22;2951;47.712;9.400;2023-07-13T03:41:28;18.30;99.90
5850;DHT22;2951;47.712;9.400;2023-07-13T03:43:54;18.30;99.90
5850;DHT22;2951;47.712;9.400;2023-07-13T03:46:21;18.40;99.90
5850;DHT22;2951;47.712;9.400;2023-07-13T03:48:48;18.40;99.90
5850;DHT22;2951;47.712;9.400;2023-07-13T03:51:15;18.40;99.90
5850;DHT22;2951;47.712;9.400;2023-07-13T03:53:43;18.40;99.90
5850;DHT22;2951;47.712;9.400;2023-07-13T03:56:10;18.40;99.90
5850;DHT22;2951;47.712;9.400;2023-07-13T03:58:38;18.50;99.90
5850;DHT22;2951;47.712;9.400;2023-07-13T04:01:07;18.50;99.90
5850;DHT22;2951;47.712;9.400;2023-07-13T04:03:34;18.60;99.90
5850;DHT22;2951;47.712;9.400;2023-07-13T04:06:02;18.60;99.90
5850;DHT22;2951;47.712;9.400;2023-07-13T04:08:29;18.60;99.90
5850;DHT22;2951;47.712;9.400;2023-07-13T04:10:57;18.60;99.90
5850;DHT22;2951;47.712;9.400;2023-07-13T04:13:24;18.60;99.90
5850;DHT22;2951;47.712;9.400;2023-07-13T04:15:51;18.70;99.90
5850;DHT22;2951;47.712;9.400;2023-07-13T04:18:18;18.70;99.90
5850;DHT22;2951;47.712;9.400;2023-07-13T04:20:46;18.70;99.90
5850;DHT22;2951;47.712;9.400;2023-07-13T04:23:13;18.70;99.90
5850;DHT22;2951;47.712;9.400;2023-07-13T04:25:43;18.70;99.90
5850;DHT22;2951;47.712;9.400;2023-07-13T04:28:10;18.70;99.90
5850;DHT22;2951;47.712;9.400;2023-07-13T04:30:36;18.80;99.90
5850;DHT22;2951;47.712;9.400;2023-07-13T04:33:03;18.80;99.90
5850;DHT22;2951;47.712;9.400;2023-07-13T04:35:31;18.80;99.90
5850;DHT22;2951;47.712;9.400;2023-07-13T04:37:58;18.90;99.90
5850;DHT22;2951;47.712;9.400;2023-07-13T04:40:25;18.80;99.90
5850;DHT22;2951;47.712;9.400;2023-07-13T04:42:52;18.80;99.90
5850;DHT22;2951;47.712;9.400;2023-07-13T04:45:19;18.90;99.90
5850;DHT22;2951;47.712;9.400;2023-07-13T04:47:46;18.90;99.90
5850;DHT22;2951;47.712;9.400;2023-07-13T04:50:13;18.90;99.90
5850;DHT22;2951;47.712;9.400;2023-07-13T04:52:45;18.90;99.90
5850;DHT22;2951;47.712;9.400;2023-07-13T04:55:12;18.90;99.90
5850;DHT22;2951;47.712;9.400;2023-07-13T04:57:38;19.00;99.90
5850;DHT22;2951;47.712;9.400;2023-07-13T05:00:05;19.10;99.90
5850;DHT22;2951;47.712;9.400;2023-07-13T05:02:33;19.00;99.90
5850;DHT22;2951;47.712;9.400;2023-07-13T05:05:01;19.00;99.90
5850;DHT22;2951;47.712;9.400;2023-07-13T05:07:30;19.10;99.90
5850;DHT22;2951;47.712;9.400;2023-07-13T05:09:59;19.10;99.90
5850;DHT22;2951;47.712;9.400;2023-07-13T05:12:26;19.20;99.90
5850;DHT22;2951;47.712;9.400;2023-07-13T05:14:53;19.20;99.90
5850;DHT22;2951;47.712;9.400;2023-07-13T05:17:20;19.30;99.90
5850;DHT22;2951;47.712;9.400;2023-07-13T05:19:47;19.20;99.90
5850;DHT22;2951;47.712;9.400;2023-07-13T05:22:13;19.20;99.90
5850;DHT22;2951;47.712;9.400;2023-07-13T05:24:40;19.30;99.90
5850;DHT22;2951;47.712;9.400;2023-07-13T05:27:07;19.40;99.90
5850;DHT22;2951;47.712;9.400;2023-07-13T05:29:34;19.50;99.90
5850;DHT22;2951;47.712;9.400;2023-07-13T05:32:00;19.60;99.90
5850;DHT22;2951;47.712;9.400;2023-07-13T05:34:27;19.60;99.90
5850;DHT22;2951;47.712;9.400;2023-07-13T05:36:54;19.70;99.90
5850;DHT22;2951;47.712;9.400;2023-07-13T05:39:21;19.60;99.90
5850;DHT22;2951;47.712;9.400;2023-07-13T05:41:48;19.50;99.90
5850;DHT22;2951;47.712;9.400;2023-07-13T05:44:15;19.60;99.90
5850;DHT22;2951;47.712;9.400;2023-07-13T05:46:41;19.50;99.90
5850;DHT22;2951;47.712;9.400;2023-07-13T05:49:08;19.60;99.90
5850;DHT22;2951;47.712;9.400;2023-07-13T05:51:35;19.60;99.90
5850;DHT22;2951;47.712;9.400;2023-07-13T05:54:02;19.70;99.90
5850;DHT22;2951;47.712;9.400;2023-07-13T05:56:28;19.80;99.90
5850;DHT22;2951;47.712;9.400;2023-07-13T05:58:56;19.80;99.90
5850;DHT22;2951;47.712;9.400;2023-07-13T06:01:22;19.90;99.90
5850;DHT22;2951;47.712;9.400;2023-07-13T06:03:50;19.90;99.90
5850;DHT22;2951;47.712;9.400;2023-07-13T06:06:17;20.00;99.90
5850;DHT22;2951;47.712;9.400;2023-07-13T06:08:43;20.00;99.90
5850;DHT22;2951;47.712;9.400;2023-07-13T06:11:14;20.10;99.90
5850;DHT22;2951;47.712;9.400;2023-07-13T06:13:41;20.10;99.90
5850;DHT22;2951;47.712;9.400;2023-07-13T06:16:08;20.00;99.90
5850;DHT22;2951;47.712;9.400;2023-07-13T06:18:35;20.00;99.90
5850;DHT22;2951;47.712;9.400;2023-07-13T06:21:12;20.00;99.90
5850;DHT22;2951;47.712;9.400;2023-07-13T06:23:40;20.00;99.90
5850;DHT22;2951;47.712;9.400;2023-07-13T06:26:07;20.10;99.90
5850;DHT22;2951;47.712;9.400;2023-07-13T06:28:34;20.10;99.90
5850;DHT22;2951;47.712;9.400;2023-07-13T06:31:01;20.10;99.90
5850;DHT22;2951;47.712;9.400;2023-07-13T06:33:28;20.10;99.90
5850;DHT22;2951;47.712;9.400;2023-07-13T06:35:54;20.10;99.90
5850;DHT22;2951;47.712;9.400;2023-07-13T06:38:21;20.10;99.90
5850;DHT22;2951;47.712;9.400;2023-07-13T06:40:48;20.00;99.90
5850;DHT22;2951;47.712;9.400;2023-07-13T06:43:15;20.00;99.90
5850;DHT22;2951;47.712;9.400;2023-07-13T06:45:43;20.00;99.90
5850;DHT22;2951;47.712;9.400;2023-07-13T06:48:12;19.80;99.90
5850;DHT22;2951;47.712;9.400;2023-07-13T06:50:38;19.70;99.90
5850;DHT22;2951;47.712;9.400;2023-07-13T06:53:05;19.70;99.90
5850;DHT22;2951;47.712;9.400;2023-07-13T06:55:32;19.70;99.90
5850;DHT22;2951;47.712;9.400;2023-07-13T06:57:59;19.80;99.90
5850;DHT22;2951;47.712;9.400;2023-07-13T07:00:26;19.70;99.90
5850;DHT22;2951;47.712;9.400;2023-07-13T07:02:53;19.60;99.90
5850;DHT22;2951;47.712;9.400;2023-07-13T07:05:19;19.40;99.90
5850;DHT22;2951;47.712;9.400;2023-07-13T07:07:49;19.30;99.90
5850;DHT22;2951;47.712;9.400;2023-07-13T07:10:16;19.40;99.90
5850;DHT22;2951;47.712;9.400;2023-07-13T07:12:43;19.50;99.90
5850;DHT22;2951;47.712;9.400;2023-07-13T07:15:09;19.40;99.90
5850;DHT22;2951;47.712;9.400;2023-07-13T07:17:36;19.50;99.90
5850;DHT22;2951;47.712;9.400;2023-07-13T07:20:03;19.60;99.90
5850;DHT22;2951;47.712;9.400;2023-07-13T07:22:30;19.50;99.90
5850;DHT22;2951;47.712;9.400;2023-07-13T07:24:57;19.70;99.90
5850;DHT22;2951;47.712;9.400;2023-07-13T07:27:24;19.50;99.90
5850;DHT22;2951;47.712;9.400;2023-07-13T07:29:54;19.50;99.90
5850;DHT22;2951;47.712;9.400;2023-07-13T07:32:40;19.50;99.90
5850;DHT22;2951;47.712;9.400;2023-07-13T07:35:22;19.50;99.90
5850;DHT22;2951;47.712;9.400;2023-07-13T07:37:49;19.50;99.90
5850;DHT22;2951;47.712;9.400;2023-07-13T07:40:17;19.60;99.90
5850;DHT22;2951;47.712;9.400;2023-07-13T07:42:47;19.40;99.90
5850;DHT22;2951;47.712;9.400;2023-07-13T07:45:13;19.50;99.90
5850;DHT22;2951;47.712;9.400;2023-07-13T07:47:40;19.40;99.90
5850;DHT22;2951;47.712;9.400;2023-07-13T07:50:07;19.50;99.90
5850;DHT22;2951;47.712;9.400;2023-07-13T07:52:34;19.60;99.90
5850;DHT22;2951;47.712;9.400;2023-07-13T07:55:01;19.50;99.90
5850;DHT22;2951;47.712;9.400;2023-07-13T07:57:31;19.20;99.90
5850;DHT22;2951;47.712;9.400;2023-07-13T08:00:18;19.10;99.90
5850;DHT22;2951;47.712;9.400;2023-07-13T08:02:48;19.10;99.90
5850;DHT22;2951;47.712;9.400;2023-07-13T08:05:17;18.90;99.90
5850;DHT22;2951;47.712;9.400;2023-07-13T08:08:02;19.10;99.90
5850;DHT22;2951;47.712;9.400;2023-07-13T08:10:29;19.30;99.90
5850;DHT22;2951;47.712;9.400;2023-07-13T08:12:56;19.60;99.90
5850;DHT22;2951;47.712;9.400;2023-07-13T08:15:25;19.80;99.90
5850;DHT22;2951;47.712;9.400;2023-07-13T08:17:52;19.90;99.90
5850;DHT22;2951;47.712;9.400;2023-07-13T08:20:19;19.80;99.90
5850;DHT22;2951;47.712;9.400;2023-07-13T08:22:45;19.90;99.90
5850;DHT22;2951;47.712;9.400;2023-07-13T08:25:12;19.90;99.90
5850;DHT22;2951;47.712;9.400;2023-07-13T08:27:39;20.20;99.90
5850;DHT22;2951;47.712;9.400;2023-07-13T08:30:06;20.30;99.90
5850;DHT22;2951;47.712;9.400;2023-07-13T08:32:35;20.40;99.90
5850;DHT22;2951;47.712;9.400;2023-07-13T08:35:02;20.40;99.90
5850;DHT22;2951;47.712;9.400;2023-07-13T08:37:30;20.20;99.90
5850;DHT22;2951;47.712;9.400;2023-07-13T08:39:56;20.10;99.90
5850;DHT22;2951;47.712;9.400;2023-07-13T08:47:39;20.40;99.90
5850;DHT22;2951;47.712;9.400;2023-07-13T08:50:10;20.30;99.90
5850;DHT22;2951;47.712;9.400;2023-07-13T08:52:39;20.50;99.90
5850;DHT22;2951;47.712;9.400;2023-07-13T08:55:18;20.50;99.90
5850;DHT22;2951;47.712;9.400;2023-07-13T08:57:46;20.60;99.90
5850;DHT22;2951;47.712;9.400;2023-07-13T09:00:14;20.50;99.90
5850;DHT22;2951;47.712;9.400;2023-07-13T09:05:18;20.80;99.90
5850;DHT22;2951;47.712;9.400;2023-07-13T09:10:37;20.90;99.90
5850;DHT22;2951;47.712;9.400;2023-07-13T09:15:45;21.70;99.90
5850;DHT22;2951;47.712;9.400;2023-07-13T09:18:19;21.90;99.90
5850;DHT22;2951;47.712;9.400;2023-07-13T09:20:49;22.30;99.90
5850;DHT22;2951;47.712;9.400;2023-07-13T09:23:20;22.70;99.90
5850;DHT22;2951;47.712;9.400;2023-07-13T09:25:48;22.80;99.90
5850;DHT22;2951;47.712;9.400;2023-07-13T09:28:18;22.90;99.90
5850;DHT22;2951;47.712;9.400;2023-07-13T09:30:54;22.90;99.90
5850;DHT22;2951;47.712;9.400;2023-07-13T09:33:22;22.80;99.90
5850;DHT22;2951;47.712;9.400;2023-07-13T09:35:49;23.00;99.90
5850;DHT22;2951;47.712;9.400;2023-07-13T09:38:17;23.20;99.90
5850;DHT22;2951;47.712;9.400;2023-07-13T09:43:30;23.10;99.90
5850;DHT22;2951;47.712;9.400;2023-07-13T09:45:57;23.10;99.90
5850;DHT22;2951;47.712;9.400;2023-07-13T09:48:23;23.20;99.90
5850;DHT22;2951;47.712;9.400;2023-07-13T09:50:54;23.60;99.90
5850;DHT22;2951;47.712;9.400;2023-07-13T09:53:21;23.50;99.90
5850;DHT22;2951;47.712;9.400;2023-07-13T09:55:49;23.40;99.90
5850;DHT22;2951;47.712;9.400;2023-07-13T09:58:23;23.50;99.90
5850;DHT22;2951;47.712;9.400;2023-07-13T10:00:58;23.80;99.90
5850;DHT22;2951;47.712;9.400;2023-07-13T10:03:29;23.40;99.90
5850;DHT22;2951;47.712;9.400;2023-07-13T10:06:01;23.20;99.90
5850;DHT22;2951;47.712;9.400;2023-07-13T10:08:28;22.50;99.90
5850;DHT22;2951;47.712;9.400;2023-07-13T10:10:58;22.90;99.90
5850;DHT22;2951;47.712;9.400;2023-07-13T10:13:33;23.20;99.90
5850;DHT22;2951;47.712;9.400;2023-07-13T10:16:01;23.40;99.90
5850;DHT22;2951;47.712;9.400;2023-07-13T10:18:29;23.60;99.90
5850;DHT22;2951;47.712;9.400;2023-07-13T10:21:09;23.60;99.90
5850;DHT22;2951;47.712;9.400;2023-07-13T10:23:55;23.50;99.90
5850;DHT22;2951;47.712;9.400;2023-07-13T10:26:26;23.50;99.90
5850;DHT22;2951;47.712;9.400;2023-07-13T10:28:54;23.50;99.90
5850;DHT22;2951;47.712;9.400;2023-07-13T10:31:22;23.50;99.90
5850;DHT22;2951;47.712;9.400;2023-07-13T10:33:50;23.60;99.90
5850;DHT22;2951;47.712;9.400;2023-07-13T10:39:18;23.70;99.90
5850;DHT22;2951;47.712;9.400;2023-07-13T10:41:46;23.40;99.90
5850;DHT22;2951;47.712;9.400;2023-07-13T10:44:17;23.00;99.90
5850;DHT22;2951;47.712;9.400;2023-07-13T10:46:44;22.90;99.90
5850;DHT22;2951;47.712;9.400;2023-07-13T10:49:11;23.20;99.90
5850;DHT22;2951;47.712;9.400;2023-07-13T10:51:39;23.00;99.90
5850;DHT22;2951;47.712;9.400;2023-07-13T10:54:11;23.00;99.90
5850;DHT22;2951;47.712;9.400;2023-07-13T10:56:46;23.20;99.90
5850;DHT22;2951;47.712;9.400;2023-07-13T10:59:26;23.40;99.90
5850;DHT22;2951;47.712;9.400;2023-07-13T11:01:58;23.70;99.90
5850;DHT22;2951;47.712;9.400;2023-07-13T11:04:40;23.70;99.90
5850;DHT22;2951;47.712;9.400;2023-07-13T11:07:18;23.70;99.90
5850;DHT22;2951;47.712;9.400;2023-07-13T11:09:49;23.40;99.90
5850;DHT22;2951;47.712;9.400;2023-07-13T11:17:33;23.60;99.90
5850;DHT22;2951;47.712;9.400;2023-07-13T11:20:09;23.50;99.90
5850;DHT22;2951;47.712;9.400;2023-07-13T11:22:47;23.90;99.90
5850;DHT22;2951;47.712;9.400;2023-07-13T11:28:04;23.90;99.90
5850;DHT22;2951;47.712;9.400;2023-07-13T11:30:34;23.70;99.90
5850;DHT22;2951;47.712;9.400;2023-07-13T11:35:36;23.70;99.90
5850;DHT22;2951;47.712;9.400;2023-07-13T11:38:03;23.40;99.90
5850;DHT22;2951;47.712;9.400;2023-07-13T11:40:35;23.30;99.90
5850;DHT22;2951;47.712;9.400;2023-07-13T11:43:02;23.80;99.90
5850;DHT22;2951;47.712;9.400;2023-07-13T11:45:33;24.20;99.90
5850;DHT22;2951;47.712;9.400;2023-07-13T11:51:21;24.60;99.90
5850;DHT22;2951;47.712;9.400;2023-07-13T11:53:44;24.20;99.90
5850;DHT22;2951;47.712;9.400;2023-07-13T11:56:11;24.10;99.90
5850;DHT22;2951;47.712;9.400;2023-07-13T11:58:39;24.10;99.90
5850;DHT22;2951;47.712;9.400;2023-07-13T12:01:05;24.30;99.90
5850;DHT22;2951;47.712;9.400;2023-07-13T12:03:33;24.10;99.90
5850;DHT22;2951;47.712;9.400;2023-07-13T12:06:05;24.30;99.90
5850;DHT22;2951;47.712;9.400;2023-07-13T12:08:38;24.60;99.90
5850;DHT22;2951;47.712;9.400;2023-07-13T12:11:11;24.80;99.90
5850;DHT22;2951;47.712;9.400;2023-07-13T12:13:40;24.60;99.90
5850;DHT22;2951;47.712;9.400;2023-07-13T12:16:10;24.10;99.90
5850;DHT22;2951;47.712;9.400;2023-07-13T12:18:37;24.10;99.90
5850;DHT22;2951;47.712;9.400;2023-07-13T12:21:05;23.90;99.90
5850;DHT22;2951;47.712;9.400;2023-07-13T12:23:34;24.10;99.90
5850;DHT22;2951;47.712;9.400;2023-07-13T12:26:03;24.20;99.90
5850;DHT22;2951;47.712;9.400;2023-07-13T12:28:34;24.10;99.90
5850;DHT22;2951;47.712;9.400;2023-07-13T12:31:02;23.80;99.90
5850;DHT22;2951;47.712;9.400;2023-07-13T12:33:29;23.30;99.90
5850;DHT22;2951;47.712;9.400;2023-07-13T12:36:02;23.60;99.90
5850;DHT22;2951;47.712;9.400;2023-07-13T12:38:30;23.30;99.90
5850;DHT22;2951;47.712;9.400;2023-07-13T12:40:57;23.30;99.90
5850;DHT22;2951;47.712;9.400;2023-07-13T12:43:25;23.50;99.90
5850;DHT22;2951;47.712;9.400;2023-07-13T12:45:54;23.50;99.90
5850;DHT22;2951;47.712;9.400;2023-07-13T12:48:22;23.90;99.90
5850;DHT22;2951;47.712;9.400;2023-07-13T12:51:02;24.30;99.90
5850;DHT22;2951;47.712;9.400;2023-07-13T12:53:29;24.50;99.90
5850;DHT22;2951;47.712;9.400;2023-07-13T12:56:01;24.60;99.90
5850;DHT22;2951;47.712;9.400;2023-07-13T12:58:30;24.30;99.90
5850;DHT22;2951;47.712;9.400;2023-07-13T13:00:59;24.60;99.90
5850;DHT22;2951;47.712;9.400;2023-07-13T13:08:53;24.60;99.90
5850;DHT22;2951;47.712;9.400;2023-07-13T13:11:20;24.60;99.90
5850;DHT22;2951;47.712;9.400;2023-07-13T13:13:47;25.10;99.90
5850;DHT22;2951;47.712;9.400;2023-07-13T13:16:17;25.50;99.90
5850;DHT22;2951;47.712;9.400;2023-07-13T13:18:46;25.40;99.90
5850;DHT22;2951;47.712;9.400;2023-07-13T13:21:14;25.50;99.90
5850;DHT22;2951;47.712;9.400;2023-07-13T13:23:41;24.90;99.90
5850;DHT22;2951;47.712;9.400;2023-07-13T13:26:13;25.10;99.90
5850;DHT22;2951;47.712;9.400;2023-07-13T13:28:42;24.90;99.90
5850;DHT22;2951;47.712;9.400;2023-07-13T13:31:10;24.70;99.90
5850;DHT22;2951;47.712;9.400;2023-07-13T13:33:40;24.30;99.90
5850;DHT22;2951;47.712;9.400;2023-07-13T13:36:15;24.30;99.90
5850;DHT22;2951;47.712;9.400;2023-07-13T13:38:42;24.80;99.90
5850;DHT22;2951;47.712;9.400;2023-07-13T13:41:10;24.90;99.90
5850;DHT22;2951;47.712;9.400;2023-07-13T13:43:37;25.00;99.90
5850;DHT22;2951;47.712;9.400;2023-07-13T13:46:09;24.60;99.90
5850;DHT22;2951;47.712;9.400;2023-07-13T13:48:38;24.70;99.90
5850;DHT22;2951;47.712;9.400;2023-07-13T13:51:15;25.20;99.90
5850;DHT22;2951;47.712;9.400;2023-07-13T13:53:42;25.60;99.90
5850;DHT22;2951;47.712;9.400;2023-07-13T13:56:09;25.40;99.90
5850;DHT22;2951;47.712;9.400;2023-07-13T13:58:37;25.50;99.90
5850;DHT22;2951;47.712;9.400;2023-07-13T14:01:03;25.60;99.90
5850;DHT22;2951;47.712;9.400;2023-07-13T14:03:34;25.70;99.90
5850;DHT22;2951;47.712;9.400;2023-07-13T14:06:01;25.30;99.90
5850;DHT22;2951;47.712;9.400;2023-07-13T14:08:28;26.00;99.90
5850;DHT22;2951;47.712;9.400;2023-07-13T14:10:55;26.50;99.90
5850;DHT22;2951;47.712;9.400;2023-07-13T14:13:27;26.90;99.90
5850;DHT22;2951;47.712;9.400;2023-07-13T14:15:54;27.40;99.90
5850;DHT22;2951;47.712;9.400;2023-07-13T14:18:21;27.20;99.90
5850;DHT22;2951;47.712;9.400;2023-07-13T14:20:48;27.30;99.90
5850;DHT22;2951;47.712;9.400;2023-07-13T14:23:15;27.30;99.90
5850;DHT22;2951;47.712;9.400;2023-07-13T14:25:42;27.40;99.90
5850;DHT22;2951;47.712;9.400;2023-07-13T14:28:17;28.00;99.90
5850;DHT22;2951;47.712;9.400;2023-07-13T14:30:45;28.50;99.90
5850;DHT22;2951;47.712;9.400;2023-07-13T14:33:13;28.30;99.90
5850;DHT22;2951;47.712;9.400;2023-07-13T14:35:40;28.10;99.90
5850;DHT22;2951;47.712;9.400;2023-07-13T14:38:09;28.60;99.90
5850;DHT22;2951;47.712;9.400;2023-07-13T14:40:38;28.20;99.90
5850;DHT22;2951;47.712;9.400;2023-07-13T14:43:11;28.30;99.90
5850;DHT22;2951;47.712;9.400;2023-07-13T14:45:47;28.30;99.90
5850;DHT22;2951;47.712;9.400;2023-07-13T14:50:42;29.00;99.90
5850;DHT22;2951;47.712;9.400;2023-07-13T14:53:10;29.50;99.90
5850;DHT22;2951;47.712;9.400;2023-07-13T14:55:37;29.70;99.90
5850;DHT22;2951;47.712;9.400;2023-07-13T14:58:04;29.90;99.90
5850;DHT22;2951;47.712;9.400;2023-07-13T15:00:30;29.20;99.90
5850;DHT22;2951;47.712;9.400;2023-07-13T15:02:58;28.70;99.90
5850;DHT22;2951;47.712;9.400;2023-07-13T15:05:26;29.90;99.90
5850;DHT22;2951;47.712;9.400;2023-07-13T15:07:53;29.80;99.90
5850;DHT22;2951;47.712;9.400;2023-07-13T15:10:21;29.90;99.90
5850;DHT22;2951;47.712;9.400;2023-07-13T15:12:50;30.40;99.90
5850;DHT22;2951;47.712;9.400;2023-07-13T15:15:17;30.20;99.90
5850;DHT22;2951;47.712;9.400;2023-07-13T15:17:47;29.80;99.90
5850;DHT22;2951;47.712;9.400;2023-07-13T15:20:17;29.10;99.90
5850;DHT22;2951;47.712;9.400;2023-07-13T15:22:44;30.20;99.90
5850;DHT22;2951;47.712;9.400;2023-07-13T15:25:19;30.00;99.90
5850;DHT22;2951;47.712;9.400;2023-07-13T15:27:47;30.60;99.90
5850;DHT22;2951;47.712;9.400;2023-07-13T15:30:14;30.90;99.90
5850;DHT22;2951;47.712;9.400;2023-07-13T15:32:42;30.10;99.90
5850;DHT22;2951;47.712;9.400;2023-07-13T15:35:19;29.70;99.90
5850;DHT22;2951;47.712;9.400;2023-07-13T15:37:46;29.50;99.90
5850;DHT22;2951;47.712;9.400;2023-07-13T15:40:14;30.50;99.90
5850;DHT22;2951;47.712;9.400;2023-07-13T15:42:41;31.10;99.90
5850;DHT22;2951;47.712;9.400;2023-07-13T15:45:21;31.50;99.90
5850;DHT22;2951;47.712;9.400;2023-07-13T15:47:49;31.20;99.90
5850;DHT22;2951;47.712;9.400;2023-07-13T15:50:23;31.00;99.90
5850;DHT22;2951;47.712;9.400;2023-07-13T15:52:52;31.10;99.90
5850;DHT22;2951;47.712;9.400;2023-07-13T15:55:19;32.20;99.90
5850;DHT22;2951;47.712;9.400;2023-07-13T15:57:47;31.20;99.90
5850;DHT22;2951;47.712;9.400;2023-07-13T16:00:16;30.60;99.90
5850;DHT22;2951;47.712;9.400;2023-07-13T16:02:43;31.50;99.90
5850;DHT22;2951;47.712;9.400;2023-07-13T16:05:10;31.40;99.90
5850;DHT22;2951;47.712;9.400;2023-07-13T16:07:37;31.20;99.90
5850;DHT22;2951;47.712;9.400;2023-07-13T16:10:04;30.50;99.90
5850;DHT22;2951;47.712;9.400;2023-07-13T16:12:30;30.40;99.90
5850;DHT22;2951;47.712;9.400;2023-07-13T16:14:59;30.20;99.90
5850;DHT22;2951;47.712;9.400;2023-07-13T16:17:26;30.60;99.90
5850;DHT22;2951;47.712;9.400;2023-07-13T16:19:54;30.70;99.90
5850;DHT22;2951;47.712;9.400;2023-07-13T16:22:22;30.60;99.90
5850;DHT22;2951;47.712;9.400;2023-07-13T16:24:49;30.20;99.90
5850;DHT22;2951;47.712;9.400;2023-07-13T16:27:16;29.40;99.90
5850;DHT22;2951;47.712;9.400;2023-07-13T16:29:43;28.90;99.90
5850;DHT22;2951;47.712;9.400;2023-07-13T16:32:12;28.50;99.90
5850;DHT22;2951;47.712;9.400;2023-07-13T16:34:41;28.20;99.90
5850;DHT22;2951;47.712;9.400;2023-07-13T16:39:45;27.70;99.90
5850;DHT22;2951;47.712;9.400;2023-07-13T16:42:12;27.80;99.90
5850;DHT22;2951;47.712;9.400;2023-07-13T16:44:39;27.60;99.90
5850;DHT22;2951;47.712;9.400;2023-07-13T16:47:10;27.40;99.90
5850;DHT22;2951;47.712;9.400;2023-07-13T16:49:39;27.30;99.90
5850;DHT22;2951;47.712;9.400;2023-07-13T16:52:08;27.10;99.90
5850;DHT22;2951;47.712;9.400;2023-07-13T16:54:36;27.10;99.90